Time;durP1;ratioP1;P1;durP2;ratioP2;P2;SDS_P1;SDS_P2;PMS_P1;PMS_P2;Temp;Humidity;BMP_temperature;BMP_pressure;BME280_temperature;BME280_humidity;BME280_pressure;Samples;Min_cycle;Max_cycle;Signal;HPM_P1;HPM_P2
2022/06/14 12:16:42;;;;;;;141.60;52.58;;;;;;;27.46;28.91;96929.06;2092949;27;20547;-57
2022/06/14 12:17:50;;;;;;;146.85;62.55;;;;;;;27.60;28.18;96927.56;2066190;28;20228;-57
2022/06/14 12:19:04;;;;;;;155.18;89.10;;;;;;;28.57;27.88;96909.69;2065614;28;20681;-57
2022/06/14 12:20:11;;;;;;;158.75;91.85;;;;;;;29.13;27.27;96918.44;2065995;28;20202;-56
2022/06/14 12:21:28;;;;;;;134.55;44.50;;;;;;;29.26;26.41;96923.22;2065477;28;20289;-57
2022/06/14 12:22:49;;;;;;;132.18;41.70;;;;;;;29.53;25.26;96921.00;2068859;28;20216;-58
2022/06/14 12:23:57;;;;;;;126.18;31.17;;;;;;;28.80;26.41;96918.66;2077369;28;20199;-57
2022/06/14 12:26:58;;;;;;;124.90;29.45;;;;;;;28.75;27.50;96914.84;2063767;28;20325;-57
2022/06/14 12:28:18;;;;;;;150.27;33.35;;;;;;;28.16;27.80;96913.38;2088995;28;20539;-57
2022/06/14 12:29:22;;;;;;;157.02;53.50;;;;;;;26.70;28.86;96913.06;2080456;28;20251;-57
2022/06/14 12:30:27;;;;;;;124.00;12.13;;;;;;;26.68;29.62;96912.34;2073783;28;20829;-57
2022/06/14 12:31:35;;;;;;;115.97;15.85;;;;;;;26.78;28.67;96901.53;2075105;28;20197;-57
2022/06/14 12:32:59;;;;;;;120.25;16.52;;;;;;;26.61;28.75;96915.84;2079258;28;20750;-57
2022/06/14 12:34:13;;;;;;;132.65;26.33;;;;;;;26.36;30.16;96913.09;2083398;28;20718;-56
2022/06/14 12:35:25;;;;;;;172.80;77.15;;;;;;;27.33;28.66;96907.28;2073739;28;20197;-57
2022/06/14 12:36:55;;;;;;;137.43;43.72;;;;;;;27.85;28.79;96909.56;2075738;28;20217;-57
2022/06/14 12:38:05;;;;;;;157.45;86.78;;;;;;;28.71;27.74;96913.50;2072357;28;20220;-60
2022/06/14 12:39:35;;;;;;;129.80;33.97;;;;;;;27.68;28.14;96911.47;2074998;28;20193;-60
2022/06/14 12:41:03;;;;;;;135.40;43.75;;;;;;;28.49;27.75;96905.19;2073195;28;20202;-60
2022/06/14 12:42:21;;;;;;;128.43;34.03;;;;;;;29.26;26.49;96908.94;2073232;28;20223;-60
2022/06/14 12:43:25;;;;;;;122.22;21.55;;;;;;;29.23;26.47;96904.75;2091587;28;20196;-60
2022/06/14 12:44:44;;;;;;;126.95;20.77;;;;;;;29.72;26.29;96906.19;2079125;28;21037;-62
2022/06/14 12:46:05;;;;;;;123.22;25.92;;;;;;;28.66;26.19;96906.81;2074152;28;20255;-60
2022/06/14 12:47:16;;;;;;;114.93;11.30;;;;;;;25.45;30.04;96879.66;2071146;28;20327;-60
2022/06/14 12:48:20;;;;;;;121.63;18.55;;;;;;;27.77;28.53;96898.03;2089518;28;20199;-60
2022/06/14 12:49:29;;;;;;;121.93;22.08;;;;;;;28.68;27.84;96895.88;2075042;28;20210;-60
2022/06/14 12:50:37;;;;;;;128.45;35.53;;;;;;;29.54;27.02;96898.47;2071240;28;20201;-60
2022/06/14 12:51:42;;;;;;;149.98;43.90;;;;;;;30.12;26.77;96900.59;2071019;28;20239;-60
2022/06/14 12:52:51;;;;;;;193.68;65.43;;;;;;;30.28;26.50;96873.47;2073049;28;20205;-61
2022/06/14 12:54:06;;;;;;;134.85;41.80;;;;;;;30.29;25.17;96885.06;2070423;28;20568;-57
2022/06/14 12:55:24;;;;;;;133.70;51.05;;;;;;;30.41;24.67;96885.41;2070603;28;20205;-57
2022/06/14 12:56:42;;;;;;;160.70;105.97;;;;;;;29.92;25.71;96889.56;2072555;28;20275;-57
2022/06/14 12:57:59;;;;;;;153.40;92.53;;;;;;;30.20;25.40;96883.50;2076426;28;20263;-57
2022/06/14 12:59:30;;;;;;;115.97;20.95;;;;;;;29.32;26.14;96882.19;2076040;28;20649;-57
2022/06/14 13:00:42;;;;;;;120.88;24.63;;;;;;;29.79;26.14;96882.09;2075015;28;20194;-57
2022/06/14 13:01:59;;;;;;;134.18;55.80;;;;;;;29.84;24.46;96879.69;2065757;28;20213;-57
2022/06/14 13:03:12;;;;;;;148.98;74.63;;;;;;;29.18;25.75;96874.91;2089500;28;20517;-57
2022/06/14 13:04:21;;;;;;;159.93;110.22;;;;;;;29.90;25.54;96864.66;2082441;28;20502;-57
2022/06/14 13:05:34;;;;;;;179.98;137.68;;;;;;;30.12;25.33;96877.19;2074069;28;20197;-57
2022/06/14 13:07:01;;;;;;;150.43;99.80;;;;;;;28.52;26.63;96876.13;2073378;28;20189;-57
2022/06/14 13:08:29;;;;;;;155.52;102.15;;;;;;;29.70;26.06;96864.34;2073973;28;20233;-57
2022/06/14 13:10:05;;;;;;;159.60;111.28;;;;;;;28.72;26.19;96865.00;2074659;28;20196;-57
2022/06/14 13:11:17;;;;;;;135.77;50.35;;;;;;;29.31;27.12;96860.88;2060645;28;20211;-57
2022/06/14 13:13:07;;;;;;;145.63;67.70;;;;;;;29.63;26.12;96859.69;2074184;28;20708;-57
2022/06/14 13:14:28;;;;;;;158.48;96.57;;;;;;;30.28;25.42;96861.84;2071941;28;20209;-57
2022/06/14 13:15:54;;;;;;;163.55;116.50;;;;;;;30.81;24.25;96858.13;2072878;28;20196;-57
2022/06/14 13:17:15;;;;;;;155.63;103.20;;;;;;;29.86;24.97;96842.63;2068200;28;20194;-57
2022/06/14 13:18:32;;;;;;;151.80;95.25;;;;;;;29.35;26.32;96856.78;2085865;28;21143;-57
2022/06/14 13:19:33;;;;;;;156.48;92.68;;;;;;;28.60;25.64;96861.00;2071548;28;20251;-57
2022/06/14 13:20:56;;;;;;;142.52;70.18;;;;;;;28.48;27.19;96850.66;2073468;28;20190;-57
2022/06/14 13:22:12;;;;;;;145.37;72.20;;;;;;;29.89;26.00;96857.59;2069249;28;20595;-57
2022/06/14 13:23:28;;;;;;;135.55;48.60;;;;;;;30.37;25.38;96857.19;2090562;28;20437;-57
2022/06/14 13:24:40;;;;;;;160.07;97.88;;;;;;;29.62;24.91;96838.38;2075762;28;20204;-57
2022/06/14 13:26:01;;;;;;;169.93;114.38;;;;;;;29.85;25.38;96856.28;2073505;28;20650;-57
2022/06/14 13:27:38;;;;;;;159.77;106.57;;;;;;;29.02;25.87;96851.66;2064178;28;20235;-57
2022/06/14 13:29:13;;;;;;;155.80;101.50;;;;;;;29.61;25.74;96848.31;2074676;28;20435;-57
2022/06/14 13:30:32;;;;;;;160.68;91.78;;;;;;;30.02;25.26;96857.81;2067771;28;20205;-57
2022/06/14 13:31:55;;;;;;;154.98;101.22;;;;;;;30.06;24.78;96847.50;2067759;28;20475;-57
2022/06/14 13:33:20;;;;;;;165.00;113.75;;;;;;;28.80;26.80;96853.34;2069447;28;20218;-58
2022/06/14 13:34:30;;;;;;;146.18;69.68;;;;;;;30.04;25.94;96844.16;2069978;28;20705;-57
2022/06/14 13:35:52;;;;;;;162.00;115.43;;;;;;;30.49;25.44;96844.94;2068382;28;20206;-57
2022/06/14 13:37:19;;;;;;;160.75;116.75;;;;;;;30.99;24.20;96852.28;2058359;28;20618;-58
2022/06/14 13:38:24;;;;;;;151.77;94.93;;;;;;;28.77;26.19;96851.00;2082932;28;20199;-57
2022/06/14 13:39:38;;;;;;;178.10;91.83;;;;;;;27.47;27.97;96853.00;2071582;28;20471;-57
2022/06/14 13:40:49;;;;;;;136.57;39.58;;;;;;;29.08;27.14;96850.13;2068583;28;20617;-57
2022/06/14 13:42:03;;;;;;;120.85;30.38;;;;;;;29.57;26.55;96851.53;2061164;28;20198;-57
2022/06/14 13:43:46;;;;;;;124.40;28.50;;;;;;;27.80;27.91;96847.56;2082574;28;20192;-57
2022/06/14 13:44:54;;;;;;;131.85;29.05;;;;;;;26.56;29.16;96846.72;2066714;28;20212;-57
2022/06/14 13:46:11;;;;;;;108.75;7.22;;;;;;;27.35;28.81;96833.72;2066708;28;20198;-57
2022/06/14 13:47:28;;;;;;;111.45;9.23;;;;;;;28.03;27.83;96836.94;2068315;28;20249;-57
2022/06/14 13:48:45;;;;;;;108.82;9.05;;;;;;;29.32;26.52;96832.97;2082739;28;20205;-61
2022/06/14 13:50:08;;;;;;;107.68;6.80;;;;;;;30.23;26.38;96834.66;2067864;28;20608;-60
2022/06/14 13:51:35;;;;;;;122.15;13.25;;;;;;;30.90;25.65;96830.03;2070632;28;20545;-60
2022/06/14 13:52:44;;;;;;;117.68;24.77;;;;;;;30.33;25.28;96827.09;2068952;28;20221;-60
2022/06/14 13:54:03;;;;;;;127.00;44.97;;;;;;;29.58;26.27;96831.69;2070021;28;20201;-60
2022/06/14 13:55:31;;;;;;;118.95;26.10;;;;;;;28.65;27.02;96832.59;2068623;28;20651;-60
2022/06/14 13:56:40;;;;;;;111.25;11.88;;;;;;;29.07;27.58;96826.94;2068321;28;20817;-60
2022/06/14 13:57:47;;;;;;;110.50;7.65;;;;;;;30.01;26.56;96829.22;2066451;28;20217;-60
2022/06/14 13:59:14;;;;;;;110.63;12.75;;;;;;;30.78;25.04;96835.94;2064759;28;20202;-60
2022/06/14 14:00:22;;;;;;;124.68;31.48;;;;;;;30.97;25.24;96835.47;2064403;28;20689;-61
2022/06/14 14:01:36;;;;;;;145.68;81.68;;;;;;;30.64;23.82;96825.19;2069491;28;20678;-60
2022/06/14 14:02:48;;;;;;;158.07;109.80;;;;;;;30.83;24.46;96829.13;2069848;28;20306;-60
2022/06/14 14:03:59;;;;;;;174.17;107.27;;;;;;;29.65;25.84;96832.63;2077433;28;20430;-60
2022/06/14 14:05:09;;;;;;;173.17;134.57;;;;;;;30.72;25.36;96827.78;2066144;28;20434;-61
2022/06/14 14:06:21;;;;;;;162.30;108.63;;;;;;;28.02;26.59;96802.19;2069079;28;20428;-60
2022/06/14 14:07:54;;;;;;;159.23;87.57;;;;;;;26.73;29.64;96829.72;2068848;28;20461;-60
2022/06/14 14:09:30;;;;;;;114.75;12.65;;;;;;;27.31;28.21;96829.72;2080589;28;20196;-60
2022/06/14 14:10:39;;;;;;;173.60;84.43;;;;;;;28.07;26.06;96820.50;2067055;28;20202;-61
2022/06/14 14:11:51;;;;;;;128.18;39.88;;;;;;;28.57;26.03;96827.28;2066875;28;20194;-60
2022/06/14 14:13:06;;;;;;;112.18;15.02;;;;;;;28.68;26.43;96820.69;2067515;28;20202;-60
2022/06/14 14:14:30;;;;;;;152.50;88.45;;;;;;;28.17;26.14;96784.38;2068476;28;20205;-60
2022/06/14 14:15:34;;;;;;;115.78;19.88;;;;;;;29.51;25.63;96820.84;2067844;28;20198;-60
2022/06/14 14:17:06;;;;;;;112.43;6.25;;;;;;;30.49;25.45;96811.78;2066115;28;20202;-61
2022/06/14 14:18:34;;;;;;;109.45;9.90;;;;;;;29.11;26.17;96812.94;2066763;28;20388;-60
2022/06/14 14:20:04;;;;;;;149.32;54.17;;;;;;;28.29;26.68;96811.66;2064520;28;20198;-60
2022/06/14 14:21:18;;;;;;;122.00;24.83;;;;;;;28.55;26.86;96821.25;2070029;28;20252;-60
2022/06/14 14:23:07;;;;;;;151.30;79.25;;;;;;;28.59;27.14;96817.19;2066992;28;20229;-60
2022/06/14 14:24:34;;;;;;;131.73;23.08;;;;;;;29.95;26.62;96811.97;2072104;28;20202;-61
2022/06/14 14:25:47;;;;;;;171.90;44.35;;;;;;;30.43;25.46;96800.69;2062644;28;20617;-60
2022/06/14 14:27:09;;;;;;;125.18;25.20;;;;;;;30.72;24.77;96792.75;2059254;28;20232;-61
2022/06/14 14:28:11;;;;;;;166.48;122.80;;;;;;;30.82;24.29;96812.13;2069008;28;20697;-61
2022/06/14 14:29:45;;;;;;;171.75;135.23;;;;;;;30.06;25.17;96810.63;2065271;28;20209;-60
2022/06/14 14:31:02;;;;;;;142.65;83.40;;;;;;;29.13;24.35;96794.78;2059418;28;20215;-60
2022/06/14 14:32:12;;;;;;;165.45;115.25;;;;;;;28.53;25.49;96801.78;2067674;28;20226;-60
2022/06/14 14:33:45;;;;;;;147.20;97.00;;;;;;;28.73;25.63;96801.34;2066855;28;20225;-60
2022/06/14 14:35:12;;;;;;;149.55;101.10;;;;;;;29.93;23.95;96805.09;2056936;28;20698;-60
2022/06/14 14:36:25;;;;;;;174.02;141.88;;;;;;;30.36;24.01;96796.28;2044388;28;20346;-60
2022/06/14 14:37:35;;;;;;;149.05;96.50;;;;;;;28.55;25.59;96797.06;2072108;28;20224;-60
2022/06/14 14:38:48;;;;;;;163.27;119.38;;;;;;;27.98;26.62;96793.66;2081875;28;20194;-60
2022/06/14 14:39:55;;;;;;;178.90;148.35;;;;;;;29.05;25.42;96794.88;2068141;28;20201;-59
2022/06/14 14:42:29;;;;;;;148.80;77.65;;;;;;;26.40;28.43;96792.16;2068266;28;20232;-56
2022/06/14 14:43:35;;;;;;;125.63;24.77;;;;;;;26.48;28.84;96788.66;2080501;28;20193;-56
2022/06/14 14:44:42;;;;;;;124.30;15.85;;;;;;;26.43;28.41;96779.47;2067164;28;20190;-57
2022/06/14 14:45:50;;;;;;;111.07;6.65;;;;;;;27.97;26.51;96791.16;2064075;28;20201;-57
2022/06/14 14:47:19;;;;;;;111.40;8.85;;;;;;;29.04;25.87;96787.81;2057487;28;20282;-57
2022/06/14 14:48:32;;;;;;;116.80;14.73;;;;;;;29.70;24.60;96791.72;2085576;28;20597;-56
2022/06/14 14:49:51;;;;;;;115.00;11.32;;;;;;;30.32;24.74;96781.53;2068897;28;20193;-56
2022/06/14 14:51:18;;;;;;;174.02;122.72;;;;;;;29.44;24.65;96784.94;2069102;28;20592;-57
2022/06/14 14:52:48;;;;;;;164.48;93.22;;;;;;;30.10;24.32;96793.09;2069369;28;20217;-57
2022/06/14 14:54:17;;;;;;;122.75;28.70;;;;;;;30.70;24.21;96787.56;2067435;28;20197;-57
2022/06/14 14:55:57;;;;;;;138.07;41.75;;;;;;;30.99;24.25;96785.72;2066036;28;20213;-56
2022/06/14 14:57:06;;;;;;;162.88;112.75;;;;;;;31.06;24.02;96765.09;2061668;28;20244;-56
2022/06/14 14:58:18;;;;;;;159.20;112.90;;;;;;;31.22;24.56;96774.75;2083532;28;20280;-57
2022/06/14 14:59:28;;;;;;;167.00;131.80;;;;;;;31.47;23.91;96786.94;2072993;28;20424;-57
2022/06/14 15:05:52;;;;;;;115.37;38.07;;;;;;;30.24;24.29;96769.03;2062918;28;20467;-57
2022/06/14 15:07:04;;;;;;;117.00;33.80;;;;;;;29.85;24.54;96762.94;2061723;28;20930;-56
2022/06/14 15:08:11;;;;;;;124.43;44.60;;;;;;;28.86;24.62;96780.06;2083383;28;20421;-56
2022/06/14 15:09:29;;;;;;;118.93;38.30;;;;;;;28.52;24.92;96773.28;2076035;28;20427;-56
2022/06/14 15:10:52;;;;;;;111.80;30.30;;;;;;;28.00;24.87;96766.69;2067458;28;20464;-56
2022/06/14 15:11:57;;;;;;;120.57;46.53;;;;;;;28.61;25.02;96777.56;2065739;28;20435;-57
2022/06/14 15:12:59;;;;;;;143.43;79.88;;;;;;;27.88;25.69;96766.22;2066692;28;20293;-56
2022/06/14 15:14:01;;;;;;;161.00;121.75;;;;;;;28.15;25.58;96764.94;2076694;28;20689;-56
2022/06/14 15:15:13;;;;;;;150.82;99.40;;;;;;;27.62;25.98;96758.47;2071280;28;20674;-56
2022/06/14 15:16:29;;;;;;;175.13;143.73;;;;;;;26.81;27.40;96756.56;2064425;28;20241;-56
2022/06/14 15:19:54;;;;;;;161.65;110.30;;;;;;;26.88;27.44;96754.91;2069977;28;20219;-56
2022/06/14 15:20:45;;;;;;;134.57;43.03;;;;;;;25.80;27.94;96755.69;2066622;28;20200;-56
2022/06/14 15:22:02;;;;;;;130.88;38.90;;;;;;;27.36;26.25;96756.81;2060670;28;20207;-57
2022/06/14 15:23:05;;;;;;;145.40;60.40;;;;;;;27.28;25.73;96749.63;2083165;28;20263;-57
2022/06/14 15:24:16;;;;;;;137.40;54.33;;;;;;;28.47;24.72;96754.19;2071413;28;20198;-56
2022/06/14 15:25:27;;;;;;;193.48;161.85;;;;;;;29.04;23.86;96746.66;2066846;28;20202;-57
2022/06/14 15:26:29;;;;;;;199.98;177.63;;;;;;;28.75;23.90;96756.34;2067286;28;20638;-57
2022/06/14 15:27:53;;;;;;;192.30;171.27;;;;;;;27.86;24.84;96746.78;2064071;28;20217;-56
2022/06/14 15:29:00;;;;;;;187.35;166.02;;;;;;;28.06;24.74;96744.53;2079218;28;20200;-57
2022/06/14 15:30:02;;;;;;;177.82;153.07;;;;;;;27.89;24.28;96698.13;2067738;28;20206;-57
2022/06/14 15:31:03;;;;;;;177.52;147.85;;;;;;;28.02;24.74;96745.84;2067971;28;20198;-58
2022/06/14 15:32:28;;;;;;;167.95;134.55;;;;;;;27.92;24.87;96742.56;2064484;28;20223;-57
2022/06/14 15:33:35;;;;;;;185.35;162.52;;;;;;;28.05;24.55;96745.56;2066533;28;20201;-57
2022/06/14 15:34:43;;;;;;;170.80;137.60;;;;;;;28.18;24.52;96744.97;2063633;28;20553;-57
2022/06/14 15:35:53;;;;;;;152.38;81.72;;;;;;;28.00;24.07;96731.78;2063512;28;20372;-57
2022/06/14 15:37:14;;;;;;;143.20;85.38;;;;;;;28.02;24.28;96745.84;2062208;28;20198;-57
2022/06/14 15:38:19;;;;;;;166.18;129.52;;;;;;;26.99;25.61;96740.31;2085805;28;20203;-57
2022/06/14 15:39:33;;;;;;;182.43;158.48;;;;;;;26.77;26.50;96741.84;2069422;28;20577;-57
2022/06/14 15:40:34;;;;;;;194.02;172.63;;;;;;;27.59;25.44;96673.84;2063987;28;20200;-57
2022/06/14 15:41:37;;;;;;;183.50;137.63;;;;;;;28.73;24.53;96744.94;2070416;28;20232;-57
2022/06/14 15:43:04;;;;;;;131.52;39.03;;;;;;;29.35;24.43;96740.34;2055080;28;20226;-56
2022/06/14 15:44:17;;;;;;;180.75;156.23;;;;;;;27.96;24.60;96738.50;2065310;28;20206;-56
2022/06/14 15:45:26;;;;;;;183.88;160.35;;;;;;;27.25;25.86;96741.09;2066632;28;20209;-56
2022/06/14 15:46:32;;;;;;;200.13;178.80;;;;;;;27.28;25.69;96738.91;2067050;28;20236;-56
2022/06/14 15:47:37;;;;;;;167.85;121.35;;;;;;;27.35;24.40;96739.06;2074999;28;20220;-56
2022/06/14 15:48:39;;;;;;;128.60;52.10;;;;;;;27.23;24.30;96738.59;2081114;28;20193;-57
2022/06/14 15:49:46;;;;;;;146.20;74.35;;;;;;;27.48;23.92;96738.56;2066766;28;20194;-57
2022/06/14 15:50:56;;;;;;;159.63;113.18;;;;;;;27.65;24.54;96745.53;2068467;28;20657;-57
2022/06/14 15:52:05;;;;;;;160.88;117.60;;;;;;;28.21;23.68;96741.91;2066713;28;20202;-56
2022/06/14 15:53:26;;;;;;;184.30;157.15;;;;;;;28.47;24.63;96738.88;2066671;28;20194;-56
2022/06/14 15:54:31;;;;;;;169.15;125.57;;;;;;;29.01;24.41;96739.81;2069033;28;20190;-56
2022/06/14 15:55:36;;;;;;;193.43;171.85;;;;;;;29.05;24.54;96737.59;2063491;28;20190;-56
2022/06/14 15:56:42;;;;;;;187.10;165.43;;;;;;;29.32;24.34;96734.31;2063587;28;20201;-56
2022/06/14 15:57:50;;;;;;;164.60;122.60;;;;;;;27.75;24.27;96713.13;2068114;28;20226;-57
2022/06/14 15:58:56;;;;;;;156.60;118.15;;;;;;;28.43;24.28;96732.22;2067175;28;20205;-56
2022/06/14 16:00:17;;;;;;;160.15;113.90;;;;;;;28.82;23.78;96725.03;2069015;28;20198;-57
2022/06/14 16:01:24;;;;;;;149.40;94.05;;;;;;;28.95;24.03;96729.78;2067619;28;20213;-56
2022/06/14 16:02:36;;;;;;;142.77;87.72;;;;;;;28.33;24.18;96727.06;2070521;28;20255;-56
2022/06/14 16:03:43;;;;;;;135.35;63.28;;;;;;;27.59;24.40;96724.78;2082150;28;20200;-56
2022/06/14 16:04:51;;;;;;;127.80;58.42;;;;;;;28.05;23.70;96724.09;2068579;28;20494;-56
2022/06/14 16:05:56;;;;;;;116.82;39.70;;;;;;;28.16;23.71;96730.88;2067265;28;20205;-56
2022/06/14 16:07:13;;;;;;;142.77;78.30;;;;;;;27.11;25.07;96721.19;2061440;28;20194;-56
2022/06/14 16:08:27;;;;;;;152.88;107.25;;;;;;;26.68;24.91;96724.91;2083475;28;20371;-56
2022/06/14 16:09:34;;;;;;;119.90;41.08;;;;;;;26.33;25.19;96720.72;2069998;28;20190;-56
2022/06/14 16:10:42;;;;;;;156.38;94.35;;;;;;;26.39;25.34;96722.75;2067303;28;20220;-59
2022/06/14 16:11:50;;;;;;;135.07;68.80;;;;;;;26.63;24.58;96718.41;2058762;28;20641;-60
2022/06/14 16:12:58;;;;;;;164.60;114.70;;;;;;;25.67;25.76;96723.22;2083967;28;20208;-59
2022/06/14 16:14:04;;;;;;;202.02;179.70;;;;;;;26.23;26.08;96718.19;2078216;28;20559;-62
2022/06/14 16:15:21;;;;;;;224.40;201.48;;;;;;;26.52;25.16;96728.41;2067113;28;20668;-60
2022/06/14 16:16:57;;;;;;;218.63;195.93;;;;;;;26.47;25.54;96727.25;2066200;28;20717;-60
2022/06/14 16:18:16;;;;;;;176.43;141.70;;;;;;;26.30;24.48;96726.44;2053429;28;20227;-59
2022/06/14 16:19:29;;;;;;;184.95;164.60;;;;;;;26.22;25.35;96706.66;2069741;28;20193;-60
2022/06/14 16:20:32;;;;;;;190.95;170.20;;;;;;;26.35;24.85;96716.06;2066535;28;20202;-60
2022/06/14 16:21:46;;;;;;;180.90;143.95;;;;;;;26.26;24.62;96717.03;2068964;28;20201;-60
2022/06/14 16:22:51;;;;;;;182.82;161.00;;;;;;;26.64;24.71;96717.38;2067698;28;20734;-60
2022/06/14 16:23:54;;;;;;;169.50;130.60;;;;;;;26.53;24.09;96719.38;2066271;28;20210;-60
2022/06/14 16:24:58;;;;;;;179.98;151.50;;;;;;;26.64;24.50;96714.69;2064833;28;20561;-60
2022/06/14 16:26:11;;;;;;;170.45;122.13;;;;;;;25.99;24.32;96710.94;2067250;28;20268;-60
2022/06/14 16:27:30;;;;;;;151.02;93.50;;;;;;;25.54;25.06;96696.94;2065886;28;20229;-60
2022/06/14 16:29:06;;;;;;;194.05;172.68;;;;;;;26.01;25.23;96706.28;2065896;28;20395;-60
2022/06/14 16:30:45;;;;;;;178.10;145.63;;;;;;;25.58;24.93;96703.63;2067440;28;20206;-60
2022/06/14 16:31:52;;;;;;;174.75;137.88;;;;;;;25.72;25.68;96694.97;2052850;28;20214;-60
2022/06/14 16:33:12;;;;;;;161.18;106.95;;;;;;;25.71;26.46;96703.19;2083118;28;20207;-61
2022/06/14 16:34:44;;;;;;;189.80;167.93;;;;;;;25.81;25.37;96681.66;2076504;28;20197;-60
2022/06/14 16:35:55;;;;;;;149.90;84.85;;;;;;;26.18;25.52;96701.81;2064675;28;20205;-59
2022/06/14 16:37:12;;;;;;;186.15;158.07;;;;;;;26.30;25.06;96699.66;2064164;28;20202;-59
2022/06/14 16:38:25;;;;;;;183.80;154.18;;;;;;;26.42;25.07;96703.66;2085150;28;20216;-60
2022/06/14 16:39:36;;;;;;;185.60;165.02;;;;;;;25.76;25.31;96700.84;2069137;28;20190;-60
2022/06/14 16:40:46;;;;;;;177.60;148.05;;;;;;;25.89;24.97;96700.38;2065602;28;20285;-60
2022/06/14 16:42:10;;;;;;;188.05;167.35;;;;;;;25.99;24.93;96705.59;2058065;28;20210;-60
2022/06/14 16:43:17;;;;;;;174.18;144.75;;;;;;;25.70;25.45;96698.81;2083430;28;20291;-60
2022/06/14 16:44:29;;;;;;;185.63;162.93;;;;;;;25.81;25.47;96690.50;2074446;28;20745;-60
2022/06/14 16:45:30;;;;;;;168.45;132.73;;;;;;;25.97;24.41;96702.25;2066694;28;20201;-59
2022/06/14 16:46:48;;;;;;;156.75;94.90;;;;;;;25.99;23.81;96705.59;2068809;28;20197;-59
2022/06/14 16:47:58;;;;;;;136.93;65.32;;;;;;;25.81;24.10;96698.53;2066980;28;20615;-60
2022/06/14 16:49:22;;;;;;;131.90;60.20;;;;;;;25.61;24.38;96697.13;2067191;28;20206;-59
2022/06/14 16:50:46;;;;;;;141.18;75.50;;;;;;;25.65;24.48;96696.66;2066428;28;20205;-59
2022/06/14 16:52:00;;;;;;;151.18;101.90;;;;;;;25.67;24.79;96681.25;2057561;28;20201;-60
2022/06/14 16:53:15;;;;;;;152.07;99.80;;;;;;;25.62;24.77;96696.13;2075831;28;20201;-60
2022/06/14 16:54:37;;;;;;;131.95;63.10;;;;;;;25.66;24.11;96692.97;2074247;28;20193;-60
2022/06/14 16:55:45;;;;;;;131.60;64.10;;;;;;;25.79;24.41;96699.69;2063180;28;20225;-59
2022/06/14 16:56:55;;;;;;;139.48;78.40;;;;;;;26.09;23.09;96690.25;2058716;28;20209;-59
2022/06/14 16:58:09;;;;;;;148.30;94.53;;;;;;;26.27;23.83;96697.31;2085655;28;20199;-59
2022/06/14 16:59:38;;;;;;;122.10;29.60;;;;;;;26.28;23.21;96698.97;2073979;28;20202;-59
2022/06/14 17:00:58;;;;;;;109.78;15.52;;;;;;;25.89;23.68;96701.22;2066288;28;20255;-59
2022/06/14 17:02:28;;;;;;;115.63;32.30;;;;;;;24.95;24.28;96689.63;2063203;28;20217;-59
2022/06/14 17:03:52;;;;;;;119.40;36.80;;;;;;;24.94;24.70;96686.09;2083903;28;20189;-59
2022/06/14 17:05:19;;;;;;;151.13;92.43;;;;;;;24.98;24.98;96697.31;2068641;28;20221;-60
2022/06/14 17:07:01;;;;;;;166.32;124.75;;;;;;;24.97;25.36;96684.94;2069997;28;20195;-60
2022/06/14 17:08:17;;;;;;;162.90;114.40;;;;;;;25.27;24.78;96696.13;2067749;28;20217;-60
2022/06/14 17:09:51;;;;;;;161.00;112.72;;;;;;;24.97;25.19;96679.59;2067017;28;20227;-60
2022/06/14 17:11:00;;;;;;;177.80;141.05;;;;;;;25.44;24.60;96675.69;2067507;28;20209;-60
2022/06/14 17:12:24;;;;;;;169.30;133.00;;;;;;;25.68;24.43;96679.44;2063595;28;20228;-60
2022/06/14 17:13:43;;;;;;;168.70;126.20;;;;;;;25.04;25.48;96679.81;2084210;28;20216;-60
2022/06/14 17:14:59;;;;;;;158.45;105.15;;;;;;;25.00;25.91;96675.78;2085808;28;20200;-60
2022/06/14 17:16:13;;;;;;;144.63;75.60;;;;;;;25.25;25.94;96679.41;2080317;28;20243;-60
2022/06/14 17:17:27;;;;;;;138.50;65.30;;;;;;;25.19;26.31;96683.59;2067826;28;20267;-60
2022/06/14 17:19:05;;;;;;;132.70;55.10;;;;;;;24.82;26.41;96675.84;2084298;28;20208;-60
2022/06/14 17:20:26;;;;;;;150.45;80.65;;;;;;;24.72;26.73;96675.94;2068499;28;20401;-60
2022/06/14 17:21:44;;;;;;;138.45;62.95;;;;;;;25.06;26.35;96680.50;2068648;28;20201;-60
2022/06/14 17:23:18;;;;;;;146.05;84.18;;;;;;;25.00;25.89;96673.09;2068586;28;20213;-60
2022/06/14 17:24:38;;;;;;;134.90;56.72;;;;;;;25.01;26.64;96680.97;2054906;28;20199;-60
2022/06/14 17:30:27;;;;;;;155.50;96.53;;;;;;;24.21;28.77;96671.19;2067082;28;20557;-61
2022/06/14 17:31:29;;;;;;;167.18;103.38;;;;;;;23.90;29.11;96676.88;2068183;28;20815;-61
2022/06/14 17:32:43;;;;;;;167.70;113.05;;;;;;;24.06;28.92;96670.06;2073299;28;20224;-61
2022/06/14 17:33:56;;;;;;;165.65;90.32;;;;;;;24.28;28.76;96671.44;2084287;28;20207;-62
2022/06/14 17:35:02;;;;;;;145.82;66.68;;;;;;;24.58;29.15;96674.66;2069335;28;20553;-62
2022/06/14 17:36:41;;;;;;;151.07;84.63;;;;;;;24.74;29.18;96673.97;2064455;28;20198;-61
2022/06/14 17:37:58;;;;;;;161.95;99.65;;;;;;;24.45;28.34;96675.06;2059696;28;20336;-62
2022/06/14 17:39:08;;;;;;;155.85;90.43;;;;;;;24.44;29.09;96673.38;2069338;28;20221;-61
2022/06/14 17:40:25;;;;;;;154.90;87.85;;;;;;;24.36;29.12;96673.31;2064646;28;20752;-61
2022/06/14 17:41:33;;;;;;;143.98;62.17;;;;;;;24.16;29.97;96681.47;2064514;28;20194;-61
2022/06/14 17:42:39;;;;;;;148.57;77.85;;;;;;;24.09;30.12;96683.94;2073522;28;20614;-61
2022/06/14 17:43:45;;;;;;;151.18;86.60;;;;;;;24.17;29.71;96648.47;2084719;28;20634;-61
2022/06/14 17:44:56;;;;;;;150.68;71.07;;;;;;;24.52;29.71;96673.44;2065716;28;20281;-61
2022/06/14 17:46:05;;;;;;;154.48;85.72;;;;;;;24.49;29.45;96675.59;2068222;28;20205;-61
2022/06/14 17:47:11;;;;;;;150.55;77.72;;;;;;;24.64;29.69;96671.38;2066713;28;20218;-61
2022/06/14 17:48:29;;;;;;;142.73;57.80;;;;;;;24.76;28.91;96672.00;2068005;28;20644;-61
2022/06/14 17:49:35;;;;;;;155.98;93.72;;;;;;;24.74;29.73;96672.13;2064565;28;20194;-62
2022/06/14 17:50:56;;;;;;;153.38;88.93;;;;;;;24.71;30.62;96669.78;2064123;28;20202;-61
2022/06/14 17:52:00;;;;;;;148.65;68.00;;;;;;;24.77;30.82;96676.31;2064641;28;20675;-61
2022/06/14 17:53:25;;;;;;;166.93;93.05;;;;;;;24.74;30.21;96674.78;2084837;28;20208;-61
2022/06/14 17:54:41;;;;;;;148.38;66.68;;;;;;;24.81;30.69;96671.50;2072140;28;20194;-61
2022/06/14 17:56:10;;;;;;;131.20;46.30;;;;;;;24.70;31.16;96672.59;2068898;28;20552;-61
2022/06/14 17:57:49;;;;;;;137.38;28.13;;;;;;;24.77;31.85;96679.84;2063189;28;20225;-61
2022/06/14 17:59:06;;;;;;;151.23;83.35;;;;;;;24.74;31.18;96680.13;2077099;28;20243;-61
2022/06/14 18:00:42;;;;;;;166.90;95.35;;;;;;;24.83;31.00;96675.69;2067429;28;20228;-62
2022/06/14 18:02:02;;;;;;;160.27;103.32;;;;;;;24.82;31.06;96675.84;2059929;28;20186;-61
2022/06/14 18:03:05;;;;;;;162.18;102.57;;;;;;;24.76;31.03;96677.31;2083908;28;20197;-57
2022/06/14 18:04:09;;;;;;;171.52;113.03;;;;;;;24.67;30.93;96668.44;2076236;28;20426;-57
2022/06/14 18:05:49;;;;;;;158.52;87.00;;;;;;;24.32;31.18;96672.78;2070366;28;20209;-57
2022/06/14 18:07:00;;;;;;;163.48;104.88;;;;;;;24.04;31.46;96667.53;2069238;28;20197;-57
2022/06/14 18:08:01;;;;;;;156.13;95.35;;;;;;;24.20;31.93;96671.34;2068719;28;20206;-57
2022/06/14 18:09:03;;;;;;;165.95;110.05;;;;;;;24.17;31.99;96672.50;2068325;28;20566;-57
2022/06/14 18:10:05;;;;;;;159.18;88.60;;;;;;;24.08;32.46;96668.91;2066072;28;20388;-57
2022/06/14 18:11:09;;;;;;;126.22;41.10;;;;;;;23.74;32.78;96679.38;2067464;28;20198;-58
2022/06/14 18:12:12;;;;;;;129.02;45.78;;;;;;;23.67;32.96;96673.81;2062582;28;20225;-57
2022/06/14 18:13:27;;;;;;;131.07;43.85;;;;;;;23.59;32.21;96669.22;2079949;28;20216;-58